createdAt,value
2023-01-03T00:00:50.203Z,7.80
2023-01-03T00:03:36.904Z,7.50
2023-01-03T00:06:25.565Z,7.60
2023-01-03T00:09:15.292Z,7.50
2023-01-03T00:12:21.269Z,7.40
2023-01-03T00:15:10.243Z,7.50
2023-01-03T00:17:56.781Z,7.50
2023-01-03T00:20:43.442Z,7.40
2023-01-03T00:23:29.682Z,7.60
2023-01-03T00:26:16.664Z,7.60
2023-01-03T00:29:05.090Z,7.50
2023-01-03T00:31:51.942Z,7.60
2023-01-03T00:34:38.740Z,7.60
2023-01-03T00:37:25.540Z,7.60
2023-01-03T00:40:12.933Z,7.60
2023-01-03T00:43:16.849Z,7.50
2023-01-03T00:46:06.354Z,7.50
2023-01-03T00:48:52.881Z,7.40
2023-01-03T00:51:40.720Z,7.40
2023-01-03T00:54:27.133Z,7.30
2023-01-03T00:57:13.586Z,7.40
2023-01-03T00:59:59.889Z,7.30
2023-01-03T01:02:47.792Z,7.10
2023-01-03T01:05:34.493Z,7.20
2023-01-03T01:08:20.958Z,7.20
2023-01-03T01:11:07.701Z,7.30
2023-01-03T01:13:54.985Z,7.10
2023-01-03T01:16:41.485Z,7.20
2023-01-03T01:19:31.005Z,7.10
2023-01-03T01:22:17.358Z,7.20
2023-01-03T01:25:04.195Z,7.00
2023-01-03T01:27:50.422Z,7.10
2023-01-03T01:30:38.315Z,7.00
2023-01-03T01:33:24.982Z,6.90
2023-01-03T01:36:17.584Z,7.00
2023-01-03T01:39:06.708Z,7.00
2023-01-03T01:42:21.670Z,7.10
2023-01-03T01:45:14.334Z,7.00
2023-01-03T01:48:07.580Z,7.00
2023-01-03T01:50:57.115Z,7.00
2023-01-03T01:53:44.870Z,7.00
2023-01-03T01:56:35.563Z,6.90
2023-01-03T01:59:22.018Z,6.80
2023-01-03T02:02:09.777Z,6.80
2023-01-03T02:04:58.083Z,6.80
2023-01-03T02:07:46.116Z,6.80
2023-01-03T02:10:52.683Z,6.80
2023-01-03T02:13:48.980Z,6.80
2023-01-03T02:16:51.070Z,6.80
2023-01-03T02:20:09.290Z,6.70
2023-01-03T02:23:31.189Z,6.80
2023-01-03T02:26:41.243Z,6.90
2023-01-03T02:30:07.535Z,6.90
2023-01-03T02:33:03.973Z,6.90
2023-01-03T02:36:00.369Z,6.90
2023-01-03T02:38:52.359Z,7.00
2023-01-03T02:41:45.218Z,6.90
2023-01-03T02:44:37.000Z,6.80
2023-01-03T02:47:30.186Z,6.70
2023-01-03T02:50:19.016Z,6.70
2023-01-03T02:53:10.770Z,6.70
2023-01-03T02:56:01.459Z,6.60
2023-01-03T02:58:55.938Z,6.70
2023-01-03T03:01:45.149Z,6.70
2023-01-03T03:04:33.922Z,6.70
2023-01-03T03:07:25.922Z,6.70
2023-01-03T03:10:30.624Z,6.70
2023-01-03T03:13:24.007Z,6.80
2023-01-03T03:16:17.387Z,6.90
2023-01-03T03:19:14.657Z,6.90
2023-01-03T03:22:33.439Z,6.90
2023-01-03T03:25:26.745Z,7.00
2023-01-03T03:28:33.794Z,7.00
2023-01-03T03:31:24.645Z,7.00
2023-01-03T03:34:15.383Z,7.10
2023-01-03T03:37:06.281Z,7.10
2023-01-03T03:40:10.122Z,7.20
2023-01-03T03:43:18.192Z,7.20
2023-01-03T03:46:08.440Z,7.20
2023-01-03T03:49:19.472Z,7.30
2023-01-03T03:52:10.676Z,7.30
2023-01-03T03:55:02.962Z,7.40
2023-01-03T03:57:54.714Z,7.50
2023-01-03T04:00:44.527Z,7.50
2023-01-03T04:03:32.590Z,7.50
2023-01-03T04:06:23.646Z,7.50
2023-01-03T04:09:10.436Z,7.40
2023-01-03T04:11:57.102Z,7.50
2023-01-03T04:14:43.355Z,7.50
2023-01-03T04:17:31.121Z,7.50
2023-01-03T04:20:18.916Z,7.40
2023-01-03T04:23:05.226Z,7.40
2023-01-03T04:25:51.965Z,7.50
2023-01-03T04:28:38.736Z,7.50
2023-01-03T04:31:25.136Z,7.50
2023-01-03T04:34:13.351Z,7.50
2023-01-03T04:37:00.126Z,7.50
2023-01-03T04:39:46.630Z,7.50
2023-01-03T04:42:50.338Z,7.50
2023-01-03T04:45:37.012Z,7.50
2023-01-03T04:48:24.181Z,7.50
2023-01-03T04:51:12.636Z,7.30
2023-01-03T04:53:59.362Z,7.40
2023-01-03T04:56:46.260Z,7.40
2023-01-03T04:59:32.508Z,7.40
2023-01-03T05:02:19.074Z,7.50
2023-01-03T05:05:07.024Z,7.50
2023-01-03T05:07:55.137Z,7.40
2023-01-03T05:10:42.169Z,7.40
2023-01-03T05:13:28.984Z,7.30
2023-01-03T05:16:16.647Z,7.30
2023-01-03T05:19:03.495Z,7.30
2023-01-03T05:22:07.230Z,7.30
2023-01-03T05:25:12.576Z,7.20
2023-01-03T05:28:00.439Z,7.20
2023-01-03T05:30:46.958Z,7.00
2023-01-03T05:33:33.396Z,7.10
2023-01-03T05:36:19.928Z,7.10
2023-01-03T05:39:07.317Z,7.10
2023-01-03T05:42:01.244Z,7.10
2023-01-03T05:44:47.701Z,7.00
2023-01-03T05:47:34.065Z,7.00
2023-01-03T05:50:20.488Z,7.00
2023-01-03T05:53:06.874Z,7.00
2023-01-03T05:55:53.386Z,7.00
2023-01-03T05:58:43.408Z,7.00
2023-01-03T06:01:30.134Z,6.90
2023-01-03T06:04:17.108Z,6.90
2023-01-03T06:07:03.680Z,5.40
2023-01-03T06:09:50.087Z,6.90
2023-01-03T06:12:36.484Z,6.80
2023-01-03T06:15:24.464Z,6.70
2023-01-03T06:18:10.040Z,6.70
2023-01-03T06:20:56.507Z,6.60
2023-01-03T06:23:43.023Z,6.60
2023-01-03T06:26:29.885Z,6.60
2023-01-03T06:29:16.575Z,6.50
2023-01-03T06:32:09.151Z,6.60
2023-01-03T06:34:56.368Z,6.40
2023-01-03T06:37:42.947Z,6.50
2023-01-03T06:40:37.041Z,6.50
2023-01-03T06:43:25.886Z,6.40
2023-01-03T06:46:31.673Z,6.40
2023-01-03T06:49:37.263Z,6.30
2023-01-03T06:52:41.361Z,6.30
2023-01-03T06:55:27.991Z,6.30
2023-01-03T06:58:14.728Z,6.30
2023-01-03T07:01:03.971Z,6.30
2023-01-03T07:03:50.735Z,6.30
2023-01-03T07:06:38.905Z,6.30
2023-01-03T07:09:25.576Z,6.20
2023-01-03T07:12:25.831Z,6.30
2023-01-03T07:15:12.916Z,6.20
2023-01-03T07:17:59.189Z,6.30
2023-01-03T07:20:46.335Z,6.20
2023-01-03T07:23:34.286Z,6.10
2023-01-03T07:26:20.685Z,6.30
2023-01-03T07:29:09.244Z,6.20
2023-01-03T07:31:55.922Z,6.20
2023-01-03T07:34:42.322Z,6.30
2023-01-03T07:37:28.820Z,6.20
2023-01-03T07:40:16.699Z,6.30
2023-01-03T07:43:20.652Z,6.30
2023-01-03T07:46:12.851Z,6.20
2023-01-03T07:49:06.508Z,6.30
2023-01-03T07:51:57.641Z,6.30
2023-01-03T07:54:44.098Z,6.30
2023-01-03T07:57:32.546Z,6.30
2023-01-03T08:00:19.693Z,6.30
2023-01-03T08:03:10.531Z,6.30
2023-01-03T08:06:01.418Z,6.30
2023-01-03T08:09:08.835Z,6.30
2023-01-03T08:12:12.400Z,6.30
2023-01-03T08:15:00.229Z,6.30
2023-01-03T08:17:46.880Z,6.30
2023-01-03T08:20:33.221Z,6.30
2023-01-03T08:23:19.606Z,6.30
2023-01-03T08:26:08.485Z,6.30
2023-01-03T08:28:54.776Z,6.30
2023-01-03T08:31:48.198Z,6.30
2023-01-03T08:34:38.487Z,6.30
2023-01-03T08:37:25.244Z,6.30
2023-01-03T08:40:15.157Z,6.40
2023-01-03T08:43:01.658Z,6.40
2023-01-03T08:45:49.645Z,6.40
2023-01-03T08:48:37.686Z,6.50
2023-01-03T08:51:26.526Z,6.50
2023-01-03T08:54:12.998Z,6.50
2023-01-03T08:56:59.297Z,6.60
2023-01-03T08:59:45.806Z,6.60
2023-01-03T09:02:35.617Z,6.60
2023-01-03T09:05:23.866Z,6.70
2023-01-03T09:08:10.529Z,6.70
2023-01-03T09:10:57.000Z,6.80
2023-01-03T09:13:43.749Z,6.80
2023-01-03T09:16:30.943Z,6.80
2023-01-03T09:19:18.131Z,6.90
2023-01-03T09:22:06.336Z,7.00
2023-01-03T09:24:52.915Z,7.10
2023-01-03T09:27:39.228Z,7.10
2023-01-03T09:30:25.704Z,7.00
2023-01-03T09:33:12.039Z,7.00
2023-01-03T09:35:58.794Z,7.20
2023-01-03T09:38:46.978Z,7.20
2023-01-03T09:41:34.374Z,7.10
2023-01-03T09:44:20.856Z,7.20
2023-01-03T09:47:07.711Z,7.30
2023-01-03T09:50:29.068Z,7.30
2023-01-03T09:53:20.948Z,7.30
2023-01-03T09:56:29.990Z,7.40
2023-01-03T09:59:36.391Z,7.20
2023-01-03T10:03:07.398Z,7.40
2023-01-03T10:06:05.734Z,7.50
2023-01-03T10:09:06.294Z,7.60
2023-01-03T10:12:06.833Z,7.60
2023-01-03T10:15:06.479Z,7.60
2023-01-03T10:18:04.159Z,7.70
2023-01-03T10:20:53.813Z,7.60
2023-01-03T10:23:40.775Z,7.80
2023-01-03T10:26:33.236Z,7.80
2023-01-03T10:29:21.505Z,7.90
2023-01-03T10:32:30.628Z,7.90
2023-01-03T10:35:20.237Z,7.90
2023-01-03T10:38:07.010Z,7.90
2023-01-03T10:40:57.427Z,7.90
2023-01-03T10:43:45.724Z,8.00
2023-01-03T10:46:33.776Z,8.10
2023-01-03T10:49:30.386Z,8.10
2023-01-03T10:52:22.756Z,8.00
2023-01-03T10:55:14.387Z,8.00
2023-01-03T10:58:02.369Z,8.20
2023-01-03T11:00:49.743Z,8.20
2023-01-03T11:03:41.599Z,8.20
2023-01-03T11:06:31.552Z,8.30
2023-01-03T11:09:18.048Z,8.30
2023-01-03T11:12:06.840Z,8.30
2023-01-03T11:14:55.979Z,8.40
2023-01-03T11:17:54.659Z,8.50
2023-01-03T11:20:50.757Z,8.50
2023-01-03T11:23:53.534Z,8.60
2023-01-03T11:26:48.917Z,8.60
2023-01-03T11:29:53.616Z,8.70
2023-01-03T11:32:51.386Z,8.80
2023-01-03T11:36:06.736Z,8.80
2023-01-03T11:39:03.196Z,8.90
2023-01-03T11:42:08.414Z,8.90
2023-01-03T11:45:26.337Z,8.90
2023-01-03T11:48:33.052Z,8.90
2023-01-03T11:51:29.897Z,8.90
2023-01-03T11:54:51.154Z,8.90
2023-01-03T11:57:46.842Z,8.90
2023-01-03T12:00:37.863Z,9.00
2023-01-03T12:03:36.800Z,9.00
2023-01-03T12:06:31.753Z,9.10
2023-01-03T12:09:25.815Z,9.10
2023-01-03T12:12:28.293Z,9.10
2023-01-03T12:15:20.238Z,9.20
2023-01-03T12:18:15.964Z,9.30
2023-01-03T12:21:08.527Z,9.40
2023-01-03T12:24:02.980Z,9.30
2023-01-03T12:26:54.140Z,9.30
2023-01-03T12:29:51.188Z,9.20
2023-01-03T12:32:45.036Z,9.30
2023-01-03T12:35:38.484Z,9.30
2023-01-03T12:38:30.421Z,9.30
2023-01-03T12:41:29.313Z,9.30
2023-01-03T12:44:22.621Z,9.30
2023-01-03T12:47:18.093Z,9.30
2023-01-03T12:50:11.333Z,9.30
2023-01-03T12:53:04.949Z,9.30
2023-01-03T12:56:07.218Z,9.30
2023-01-03T12:59:06.128Z,9.30
2023-01-03T13:01:59.166Z,9.30
2023-01-03T13:04:48.755Z,9.30
2023-01-03T13:07:35.954Z,9.30
2023-01-03T13:10:28.541Z,9.30
2023-01-03T13:13:17.984Z,9.30
2023-01-03T13:16:50.337Z,9.30
2023-01-03T13:22:58.704Z,9.40
2023-01-03T13:25:45.359Z,9.50
2023-01-03T13:28:34.209Z,9.50
2023-01-03T13:31:38.163Z,9.50
2023-01-03T13:34:36.107Z,9.50
2023-01-03T13:37:23.843Z,9.50
2023-01-03T13:41:07.989Z,9.50
2023-01-03T13:43:40.411Z,9.50
2023-01-03T13:46:29.336Z,9.50
2023-01-03T13:49:20.408Z,9.50
2023-01-03T13:52:36.744Z,9.40
2023-01-03T13:55:38.217Z,9.50
2023-01-03T13:58:40.760Z,9.50
2023-01-03T14:01:46.675Z,9.50
2023-01-03T14:04:57.255Z,9.40
2023-01-03T14:07:58.559Z,9.40
2023-01-03T14:11:01.530Z,9.40
2023-01-03T14:13:50.732Z,9.50
2023-01-03T14:16:47.222Z,9.50
2023-01-03T14:19:37.436Z,9.50
2023-01-03T14:22:31.582Z,9.50
2023-01-03T14:25:36.782Z,9.60
2023-01-03T14:28:26.083Z,9.50
2023-01-03T14:31:19.803Z,9.60
2023-01-03T14:34:07.994Z,9.50
2023-01-03T14:37:00.570Z,9.50
2023-01-03T14:39:54.497Z,9.50
2023-01-03T14:42:46.128Z,9.60
2023-01-03T14:45:34.334Z,9.60
2023-01-03T14:48:22.273Z,9.50
2023-01-03T14:51:11.471Z,9.50
2023-01-03T14:54:00.129Z,9.60
2023-01-03T14:56:47.719Z,9.60
2023-01-03T14:59:35.244Z,9.60
2023-01-03T15:02:24.146Z,9.70
2023-01-03T15:05:26.848Z,9.60
2023-01-03T15:08:25.841Z,9.60
2023-01-03T15:11:14.420Z,9.60
2023-01-03T15:14:04.252Z,9.60
2023-01-03T15:16:52.195Z,9.50
2023-01-03T15:19:47.414Z,9.60
2023-01-03T15:22:40.148Z,9.50
2023-01-03T15:25:34.766Z,9.50
2023-01-03T15:28:29.122Z,9.60
2023-01-03T15:31:25.231Z,9.50
2023-01-03T15:34:16.929Z,9.50
2023-01-03T15:37:13.080Z,9.50
2023-01-03T15:40:05.746Z,9.50
2023-01-03T15:43:10.451Z,9.50
2023-01-03T15:46:03.713Z,9.50
2023-01-03T15:48:55.873Z,9.40
2023-01-03T15:51:42.650Z,9.40
2023-01-03T15:54:30.799Z,9.40
2023-01-03T15:57:21.133Z,9.40
2023-01-03T16:00:11.391Z,9.30
2023-01-03T16:02:58.600Z,9.40
2023-01-03T16:05:46.232Z,9.30
2023-01-03T16:08:34.374Z,9.30
2023-01-03T16:11:31.580Z,9.40
2023-01-03T16:14:24.385Z,9.30
2023-01-03T16:17:22.531Z,9.30
2023-01-03T16:20:15.897Z,9.30
2023-01-03T16:23:02.631Z,9.30
2023-01-03T16:25:49.466Z,9.30
2023-01-03T16:28:37.293Z,9.30
2023-01-03T16:31:31.012Z,9.30
2023-01-03T16:34:20.611Z,9.30
2023-01-03T16:37:11.363Z,9.30
2023-01-03T16:39:59.154Z,9.30
2023-01-03T16:42:46.051Z,9.30
2023-01-03T16:45:34.085Z,9.30
2023-01-03T16:48:24.055Z,9.40
2023-01-03T16:51:19.434Z,9.40
2023-01-03T16:54:09.293Z,9.30
2023-01-03T16:56:55.591Z,9.30
2023-01-03T16:59:41.893Z,9.40
2023-01-03T17:02:30.350Z,9.40
2023-01-03T17:05:17.126Z,9.30
2023-01-03T17:08:07.014Z,9.40
2023-01-03T17:10:56.362Z,9.30
2023-01-03T17:13:45.508Z,9.40
2023-01-03T17:16:33.074Z,9.30
2023-01-03T17:22:32.296Z,9.40
2023-01-03T17:25:18.991Z,9.30
2023-01-03T17:28:06.583Z,9.40
2023-01-03T17:30:56.668Z,9.30
2023-01-03T17:33:43.476Z,9.30
2023-01-03T17:36:34.884Z,9.30
2023-01-03T17:39:21.737Z,9.20
2023-01-03T17:42:16.658Z,9.20
2023-01-03T17:45:20.509Z,9.20
2023-01-03T17:48:30.604Z,9.20
2023-01-03T17:51:17.404Z,9.20
2023-01-03T17:54:05.467Z,9.20
2023-01-03T17:56:52.031Z,9.20
2023-01-03T17:59:38.431Z,9.20
2023-01-03T18:02:26.636Z,9.20
2023-01-03T18:05:21.526Z,9.10
2023-01-03T18:08:19.075Z,9.10
2023-01-03T18:11:07.835Z,9.10
2023-01-03T18:13:54.177Z,9.10
2023-01-03T18:16:41.155Z,9.00
2023-01-03T18:19:27.930Z,9.00
2023-01-03T18:22:21.767Z,9.00
2023-01-03T18:25:21.729Z,9.00
2023-01-03T18:28:13.950Z,8.90
2023-01-03T18:31:00.835Z,8.90
2023-01-03T18:33:47.603Z,8.90
2023-01-03T18:36:39.717Z,8.90
2023-01-03T18:39:29.130Z,8.90
2023-01-03T18:42:33.692Z,9.00
2023-01-03T18:45:21.777Z,8.90
2023-01-03T18:48:12.142Z,8.90
2023-01-03T18:50:59.904Z,8.90
2023-01-03T18:53:49.517Z,8.90
2023-01-03T18:56:37.587Z,8.90
2023-01-03T18:59:26.988Z,8.90
2023-01-03T19:02:16.497Z,8.90
2023-01-03T19:05:03.081Z,8.90
2023-01-03T19:07:52.801Z,8.90
2023-01-03T19:10:39.755Z,8.90
2023-01-03T19:13:28.570Z,8.80
2023-01-03T19:16:15.461Z,8.80
2023-01-03T19:19:04.207Z,8.80
2023-01-03T19:21:50.672Z,8.80
2023-01-03T19:24:39.614Z,8.80
2023-01-03T19:27:32.743Z,8.70
2023-01-03T19:30:22.904Z,8.80
2023-01-03T19:33:15.134Z,8.80
2023-01-03T19:36:03.611Z,8.70
2023-01-03T19:38:50.446Z,8.60
2023-01-03T19:42:03.067Z,8.60
2023-01-03T19:44:50.760Z,8.60
2023-01-03T19:47:38.993Z,8.60
2023-01-03T19:50:27.676Z,8.60
2023-01-03T19:53:15.405Z,8.50
2023-01-03T19:56:02.180Z,8.50
2023-01-03T19:58:49.242Z,8.50
2023-01-03T20:01:58.213Z,8.50
2023-01-03T20:04:43.056Z,8.50
2023-01-03T20:07:29.808Z,8.50
2023-01-03T20:10:20.131Z,8.40
2023-01-03T20:13:07.452Z,8.40
2023-01-03T20:15:57.967Z,8.40
2023-01-03T20:18:45.064Z,8.40
2023-01-03T20:21:33.037Z,8.40
2023-01-03T20:24:25.203Z,8.40
2023-01-03T20:27:14.770Z,8.40
2023-01-03T20:30:01.512Z,8.40
2023-01-03T20:32:48.197Z,8.40
2023-01-03T20:38:45.363Z,8.40
2023-01-03T20:41:37.255Z,8.40
2023-01-03T20:44:25.943Z,8.40
2023-01-03T20:47:14.330Z,8.50
2023-01-03T20:50:01.454Z,8.40
2023-01-03T20:52:49.905Z,8.50
2023-01-03T20:55:36.307Z,8.50
2023-01-03T20:58:26.441Z,8.50
2023-01-03T21:01:15.240Z,8.50
2023-01-03T21:04:02.191Z,8.50
2023-01-03T21:06:48.847Z,8.50
2023-01-03T21:09:35.478Z,8.40
2023-01-03T21:12:21.856Z,8.40
2023-01-03T21:15:08.667Z,8.40
2023-01-03T21:17:56.539Z,8.40
2023-01-03T21:20:43.282Z,8.40
2023-01-03T21:23:29.695Z,8.50
2023-01-03T21:26:16.331Z,8.40
2023-01-03T21:29:03.482Z,8.40
2023-01-03T21:31:50.182Z,8.50
2023-01-03T21:34:38.382Z,8.40
2023-01-03T21:37:25.211Z,8.40
2023-01-03T21:40:17.625Z,8.40
2023-01-03T21:43:06.749Z,8.40
2023-01-03T21:45:56.274Z,8.40
2023-01-03T21:48:43.804Z,8.40
2023-01-03T21:51:38.435Z,8.40
2023-01-03T21:54:25.866Z,8.40
2023-01-03T21:57:16.351Z,8.40
2023-01-03T22:00:07.593Z,8.40
2023-01-03T22:03:11.816Z,8.40
2023-01-03T22:06:07.066Z,8.40
2023-01-03T22:08:55.426Z,8.40
2023-01-03T22:11:41.769Z,8.40
2023-01-03T22:14:28.313Z,8.40
2023-01-03T22:17:15.313Z,8.40
2023-01-03T22:20:02.234Z,8.40
2023-01-03T22:22:49.214Z,8.40
2023-01-03T22:25:37.488Z,8.40
2023-01-03T22:28:25.257Z,8.40
2023-01-03T22:31:12.755Z,8.40
2023-01-03T22:33:59.528Z,8.40
2023-01-03T22:36:45.922Z,8.40
2023-01-03T22:39:32.068Z,8.50
2023-01-03T22:42:20.048Z,8.40
2023-01-03T22:45:08.208Z,8.50
2023-01-03T22:47:54.544Z,8.40
2023-01-03T22:50:41.370Z,8.40
2023-01-03T22:53:27.748Z,8.40
2023-01-03T22:56:16.107Z,8.40
2023-01-03T22:59:04.084Z,8.40
2023-01-03T23:01:51.272Z,8.40
2023-01-03T23:04:37.780Z,8.40
2023-01-03T23:07:24.472Z,8.40
2023-01-03T23:10:11.595Z,8.50
2023-01-03T23:12:59.657Z,8.50
2023-01-03T23:15:47.409Z,8.50
2023-01-03T23:18:34.561Z,8.50
2023-01-03T23:21:21.131Z,8.50
2023-01-03T23:24:08.479Z,8.50
2023-01-03T23:26:55.225Z,8.50
2023-01-03T23:29:42.073Z,8.50
2023-01-03T23:32:29.943Z,8.50
2023-01-03T23:35:18.819Z,8.50
2023-01-03T23:38:05.748Z,8.50
2023-01-03T23:40:52.359Z,8.50
2023-01-03T23:43:39.135Z,8.50
2023-01-03T23:46:25.764Z,8.50
2023-01-03T23:49:13.905Z,8.40
2023-01-03T23:52:00.467Z,8.50
2023-01-03T23:54:46.921Z,8.50
2023-01-03T23:57:33.337Z,8.50
